Time;durP1;ratioP1;P1;durP2;ratioP2;P2;SDS_P1;SDS_P2;PMS_P1;PMS_P2;Temp;Humidity;BMP_temperature;BMP_pressure;BME280_temperature;BME280_humidity;BME280_pressure;Samples;Min_cycle;Max_cycle;Signal;HPM_P1;HPM_P2
2022/08/08 04:04:42;;;;;;;14.50;13.80;;;15.10;99.90;;;;;;5078165;23;20275;-68
2022/08/08 04:07:08;;;;;;;13.37;12.77;;;15.10;99.90;;;;;;4914541;29;20470;-68
2022/08/08 04:09:35;;;;;;;14.43;13.73;;;15.10;99.90;;;;;;4914972;29;20478;-68
2022/08/08 04:12:02;;;;;;;14.27;13.67;;;15.10;99.90;;;;;;4915242;29;20482;-68
2022/08/08 04:14:29;;;;;;;14.37;13.77;;;15.10;99.90;;;;;;4914908;29;20486;-68
2022/08/08 04:16:56;;;;;;;14.30;13.50;;;15.10;99.90;;;;;;4914814;29;20459;-68
2022/08/08 04:19:23;;;;;;;13.97;13.20;;;15.10;99.90;;;;;;4914747;29;20807;-68
2022/08/08 04:21:51;;;;;;;14.73;13.97;;;15.20;99.90;;;;;;4914996;29;20462;-68
2022/08/08 04:24:17;;;;;;;14.40;13.60;;;15.20;99.90;;;;;;4914866;29;20897;-69
2022/08/08 04:26:44;;;;;;;15.60;14.60;;;15.20;99.90;;;;;;4914599;29;20960;-68
2022/08/08 04:29:11;;;;;;;15.07;14.07;;;15.20;99.90;;;;;;4914578;29;20451;-68
2022/08/08 04:31:37;;;;;;;15.13;14.20;;;15.20;99.90;;;;;;4914632;29;20454;-68
2022/08/08 04:34:04;;;;;;;14.10;13.10;;;15.30;99.90;;;;;;4914701;29;21003;-68
2022/08/08 04:36:31;;;;;;;14.10;13.50;;;15.30;99.90;;;;;;4914702;29;20456;-68
2022/08/08 04:38:59;;;;;;;14.73;13.93;;;15.30;99.90;;;;;;4914076;29;20816;-68
2022/08/08 04:41:25;;;;;;;14.70;13.70;;;15.30;99.90;;;;;;4914324;29;20917;-69
2022/08/08 04:44:26;;;;;;;14.07;13.47;;;15.40;99.90;;;;;;4914298;29;20508;-67
2022/08/08 04:46:53;;;;;;;13.80;13.30;;;15.30;99.90;;;;;;4914017;29;20457;-66
2022/08/08 04:49:19;;;;;;;14.47;13.70;;;15.30;99.90;;;;;;4914276;29;20462;-66
2022/08/08 04:51:46;;;;;;;14.20;13.60;;;15.30;99.90;;;;;;4910170;29;20454;-65
2022/08/08 04:54:14;;;;;;;14.57;13.70;;;15.30;99.90;;;;;;4913683;29;20458;-66
2022/08/08 04:56:41;;;;;;;13.90;13.10;;;15.40;99.90;;;;;;4913801;29;20863;-65
2022/08/08 04:59:07;;;;;;;14.00;13.30;;;15.70;99.90;;;;;;4913834;29;20458;-66
2022/08/08 05:01:34;;;;;;;14.03;13.33;;;16.30;99.90;;;;;;4913946;29;20494;-67
2022/08/08 05:04:01;;;;;;;13.90;13.00;;;16.70;99.90;;;;;;4913463;29;20498;-67
2022/08/08 05:06:28;;;;;;;13.30;12.70;;;17.20;99.90;;;;;;4913607;29;20471;-67
2022/08/08 05:08:55;;;;;;;15.40;14.43;;;17.60;99.90;;;;;;4913439;29;20454;-67
2022/08/08 05:11:23;;;;;;;14.67;13.70;;;18.00;99.90;;;;;;4913623;29;20939;-66
2022/08/08 05:13:49;;;;;;;14.53;13.20;;;18.30;99.90;;;;;;4913716;29;20455;-66
2022/08/08 05:16:16;;;;;;;13.90;13.00;;;18.50;99.90;;;;;;4913866;29;20461;-66
2022/08/08 05:18:43;;;;;;;12.00;11.40;;;18.70;99.90;;;;;;4913806;29;20458;-66
2022/08/08 05:21:09;;;;;;;13.80;13.03;;;18.80;99.90;;;;;;4913722;29;20486;-66
2022/08/08 05:23:36;;;;;;;14.57;13.57;;;18.90;99.90;;;;;;4913714;29;20462;-66
2022/08/08 05:26:03;;;;;;;14.13;13.13;;;19.00;99.90;;;;;;4914029;29;20455;-66
2022/08/08 05:28:31;;;;;;;14.93;13.93;;;19.10;99.90;;;;;;4913496;29;20895;-66
2022/08/08 05:30:58;;;;;;;15.30;14.20;;;19.10;99.90;;;;;;4911563;29;20568;-66
2022/08/08 05:33:25;;;;;;;14.37;13.57;;;19.20;99.90;;;;;;4911672;29;20884;-66
2022/08/08 05:35:53;;;;;;;14.33;13.57;;;19.30;99.90;;;;;;4913612;29;20537;-67
2022/08/08 05:38:22;;;;;;;14.33;13.57;;;19.40;99.90;;;;;;4913448;29;20454;-67
2022/08/08 05:40:51;;;;;;;14.30;13.60;;;19.60;99.90;;;;;;4913359;29;21067;-66
2022/08/08 05:43:24;;;;;;;13.70;12.80;;;19.90;99.80;;;;;;4913553;29;20913;-66
2022/08/08 05:45:56;;;;;;;14.43;13.63;;;20.00;99.20;;;;;;4913206;29;20533;-67
2022/08/08 05:48:23;;;;;;;15.87;14.40;;;20.30;98.80;;;;;;4913039;29;20546;-67
2022/08/08 05:50:50;;;;;;;14.50;13.80;;;20.40;98.40;;;;;;4915210;29;20454;-67
2022/08/08 05:53:17;;;;;;;14.67;13.90;;;20.50;98.10;;;;;;4917123;29;20450;-67
2022/08/08 05:55:45;;;;;;;14.57;13.57;;;20.80;97.60;;;;;;4916916;29;20517;-67
2022/08/08 05:58:12;;;;;;;13.80;13.10;;;20.90;97.10;;;;;;4916813;29;20628;-66
2022/08/08 06:00:40;;;;;;;14.50;13.90;;;21.10;97.00;;;;;;4916645;29;20490;-67
2022/08/08 06:03:14;;;;;;;15.13;14.33;;;21.50;96.10;;;;;;4916528;29;20486;-67
2022/08/08 06:05:48;;;;;;;15.30;14.40;;;21.80;95.30;;;;;;4916687;29;20462;-66
2022/08/08 06:08:15;;;;;;;14.47;13.70;;;22.10;94.60;;;;;;4916649;29;20454;-68
2022/08/08 06:10:43;;;;;;;14.47;13.87;;;22.00;94.20;;;;;;4916571;29;20461;-67
2022/08/08 06:13:10;;;;;;;14.47;13.73;;;22.30;94.00;;;;;;4916430;29;21007;-67
2022/08/08 06:15:37;;;;;;;14.77;13.27;;;22.40;93.40;;;;;;4916476;29;20490;-68
2022/08/08 06:18:04;;;;;;;13.83;13.00;;;22.60;92.90;;;;;;4916806;29;20457;-68
2022/08/08 06:20:32;;;;;;;13.80;12.90;;;22.80;92.70;;;;;;4916490;29;20478;-68
2022/08/08 06:22:59;;;;;;;13.80;13.07;;;22.70;92.50;;;;;;4916454;29;20446;-67
2022/08/08 06:25:26;;;;;;;13.60;12.90;;;23.00;92.30;;;;;;4916255;29;20454;-68
2022/08/08 06:27:55;;;;;;;13.47;12.80;;;23.40;91.80;;;;;;4916102;29;20458;-68
2022/08/08 06:30:22;;;;;;;15.47;14.33;;;23.50;91.40;;;;;;4916334;29;20451;-68
2022/08/08 06:32:51;;;;;;;13.50;13.00;;;23.70;91.10;;;;;;4916314;29;20478;-68
2022/08/08 06:35:19;;;;;;;14.27;13.43;;;24.10;90.20;;;;;;4914365;29;20731;-68
2022/08/08 06:37:51;;;;;;;15.47;14.67;;;24.10;90.30;;;;;;4915880;29;20858;-68
2022/08/08 06:40:19;;;;;;;13.97;13.00;;;24.30;89.40;;;;;;4916164;29;20953;-68
2022/08/08 06:42:53;;;;;;;12.83;12.30;;;24.20;89.50;;;;;;4915998;29;20462;-67
2022/08/08 06:45:21;;;;;;;13.50;13.00;;;24.50;88.80;;;;;;4916174;29;20863;-68
2022/08/08 06:47:48;;;;;;;14.80;13.80;;;24.60;88.00;;;;;;4916022;29;20876;-68
2022/08/08 06:50:15;;;;;;;16.13;14.43;;;25.00;86.50;;;;;;4915715;29;20510;-68
2022/08/08 06:52:42;;;;;;;14.97;14.13;;;25.50;84.30;;;;;;4915558;29;20462;-68
2022/08/08 06:55:11;;;;;;;15.17;14.27;;;26.00;83.00;;;;;;4915651;29;20473;-68
2022/08/08 06:57:38;;;;;;;14.10;13.33;;;26.20;81.20;;;;;;4915852;29;20454;-67
2022/08/08 07:00:07;;;;;;;13.60;12.80;;;26.20;80.90;;;;;;4916113;29;20812;-68
2022/08/08 07:02:35;;;;;;;14.10;13.53;;;25.90;80.60;;;;;;4915126;29;20493;-68
2022/08/08 07:05:07;;;;;;;15.57;14.77;;;26.00;80.80;;;;;;4915965;29;21059;-68
2022/08/08 07:07:49;;;;;;;14.70;14.00;;;26.10;80.10;;;;;;4915832;29;20513;-68
2022/08/08 07:10:20;;;;;;;14.47;13.87;;;26.50;78.60;;;;;;4915818;29;20461;-68
2022/08/08 07:12:51;;;;;;;16.10;15.10;;;26.80;78.10;;;;;;4915629;29;20482;-68
2022/08/08 07:15:21;;;;;;;15.97;15.17;;;27.00;76.70;;;;;;4915947;29;20859;-69
2022/08/08 07:17:48;;;;;;;15.20;14.50;;;27.30;76.50;;;;;;4915736;29;20450;-69
2022/08/08 07:20:19;;;;;;;16.23;15.33;;;27.60;74.80;;;;;;4915686;29;20454;-70
2022/08/08 07:22:57;;;;;;;14.07;13.50;;;27.90;73.80;;;;;;4915745;29;20859;-70
2022/08/08 07:25:26;;;;;;;15.37;14.67;;;28.30;72.70;;;;;;4915261;29;20454;-69
2022/08/08 07:28:00;;;;;;;15.33;14.63;;;28.70;71.20;;;;;;4915329;29;20454;-70
2022/08/08 07:30:27;;;;;;;15.13;14.23;;;29.20;69.70;;;;;;4915370;29;20869;-70
2022/08/08 07:32:55;;;;;;;15.40;14.70;;;29.40;68.30;;;;;;4915138;29;20802;-67
2022/08/08 07:35:22;;;;;;;15.17;14.27;;;30.00;66.40;;;;;;4915204;29;20454;-70
2022/08/08 07:37:50;;;;;;;15.47;14.57;;;29.30;67.20;;;;;;4915396;29;20513;-70
2022/08/08 07:40:17;;;;;;;16.50;15.43;;;29.90;65.90;;;;;;4915371;29;20458;-68
2022/08/08 07:42:46;;;;;;;16.70;15.83;;;30.30;64.20;;;;;;4915035;29;20465;-68
2022/08/08 07:45:13;;;;;;;15.47;14.40;;;30.00;64.80;;;;;;4914927;29;20454;-68
2022/08/08 07:47:40;;;;;;;15.47;14.33;;;30.60;63.80;;;;;;4914932;29;20454;-68
2022/08/08 07:50:07;;;;;;;17.17;15.83;;;31.00;61.80;;;;;;4914963;29;20454;-68
2022/08/08 07:52:34;;;;;;;16.87;15.80;;;31.10;61.70;;;;;;4915177;29;20537;-68
2022/08/08 07:55:06;;;;;;;15.67;14.87;;;31.50;59.80;;;;;;4913660;29;20459;-69
2022/08/08 07:57:40;;;;;;;15.87;14.87;;;31.20;59.70;;;;;;4915030;29;20454;-68
2022/08/08 08:00:10;;;;;;;16.93;15.60;;;31.30;60.00;;;;;;4914589;29;20837;-68
2022/08/08 08:02:39;;;;;;;17.27;15.70;;;31.50;59.10;;;;;;4914432;29;20850;-68
2022/08/08 08:05:14;;;;;;;15.67;14.77;;;32.30;58.00;;;;;;4914429;29;20542;-68
2022/08/08 08:07:42;;;;;;;14.33;13.63;;;32.60;57.00;;;;;;4914697;29;20446;-68
2022/08/08 08:10:11;;;;;;;15.90;14.27;;;32.70;56.80;;;;;;4914639;29;20571;-68
2022/08/08 08:12:39;;;;;;;15.20;14.40;;;32.00;57.20;;;;;;4913724;29;20451;-68
2022/08/08 08:15:07;;;;;;;15.30;14.50;;;32.20;57.10;;;;;;4914629;29;21004;-68
2022/08/08 08:17:44;;;;;;;15.73;14.90;;;32.30;57.20;;;;;;4914614;29;20549;-68
2022/08/08 08:20:13;;;;;;;14.40;13.90;;;32.40;57.00;;;;;;4914321;29;20525;-68
2022/08/08 08:22:40;;;;;;;14.70;14.10;;;32.70;55.90;;;;;;4914204;29;20490;-69
2022/08/08 08:25:07;;;;;;;16.73;15.77;;;33.30;55.20;;;;;;4914539;29;20458;-70
2022/08/08 08:27:34;;;;;;;15.43;14.63;;;33.30;55.10;;;;;;4914509;29;20940;-69
2022/08/08 08:30:01;;;;;;;15.17;14.57;;;33.50;54.30;;;;;;4914283;29;20450;-69
2022/08/08 08:32:28;;;;;;;14.33;13.67;;;33.90;53.70;;;;;;4914074;29;20458;-69
2022/08/08 08:34:56;;;;;;;13.80;13.13;;;34.10;53.10;;;;;;4914150;29;20953;-70
2022/08/08 08:37:23;;;;;;;16.30;15.60;;;33.90;53.30;;;;;;4913989;29;20566;-69
2022/08/08 08:39:49;;;;;;;14.07;13.37;;;33.50;53.40;;;;;;4914416;29;20533;-69
2022/08/08 08:42:17;;;;;;;14.67;13.97;;;33.90;53.00;;;;;;4914203;29;20826;-69
2022/08/08 08:44:44;;;;;;;14.10;13.60;;;34.40;52.40;;;;;;4913827;29;20465;-70
2022/08/08 08:47:11;;;;;;;16.00;15.13;;;34.80;51.10;;;;;;4913864;29;20517;-69
2022/08/08 08:49:38;;;;;;;15.37;14.70;;;35.30;50.00;;;;;;4913801;29;21007;-70
2022/08/08 08:52:08;;;;;;;15.43;14.83;;;35.90;49.00;;;;;;4914245;29;20867;-69
2022/08/08 08:54:35;;;;;;;15.17;14.57;;;35.60;48.50;;;;;;4914071;29;20465;-69
2022/08/08 08:57:04;;;;;;;16.53;15.93;;;35.40;48.10;;;;;;4913918;29;20850;-70
2022/08/08 08:59:38;;;;;;;15.10;14.30;;;35.50;48.50;;;;;;4912220;29;20467;-70
2022/08/08 09:02:09;;;;;;;16.07;15.57;;;36.10;47.60;;;;;;4913493;29;20557;-70
2022/08/08 09:04:37;;;;;;;14.77;14.27;;;36.00;47.20;;;;;;4913308;29;20861;-70
2022/08/08 09:07:06;;;;;;;16.60;16.00;;;36.10;46.30;;;;;;4914191;29;20458;-70
2022/08/08 09:09:35;;;;;;;15.37;14.23;;;36.50;45.60;;;;;;4914062;29;20458;-71
2022/08/08 09:12:02;;;;;;;15.60;14.90;;;36.80;45.50;;;;;;4914125;29;20454;-70
2022/08/08 09:14:29;;;;;;;16.93;16.23;;;37.10;44.40;;;;;;4912117;29;20462;-71
2022/08/08 09:16:56;;;;;;;15.83;15.23;;;36.60;44.60;;;;;;4912977;29;20553;-70
2022/08/08 09:19:22;;;;;;;15.83;15.27;;;36.50;44.80;;;;;;4913285;29;20835;-70
2022/08/08 09:21:50;;;;;;;15.40;14.47;;;36.20;45.10;;;;;;4913435;29;20490;-70
2022/08/08 09:24:19;;;;;;;15.57;15.07;;;36.30;44.40;;;;;;4914445;29;20454;-70
2022/08/08 09:26:57;;;;;;;15.03;14.23;;;36.80;43.80;;;;;;4917344;29;20525;-70
2022/08/08 09:29:25;;;;;;;15.50;14.90;;;36.60;44.10;;;;;;4916995;29;20874;-70
2022/08/08 09:32:00;;;;;;;15.87;15.17;;;37.00;43.20;;;;;;4917167;29;20819;-70
2022/08/08 09:34:31;;;;;;;15.57;14.97;;;37.20;42.30;;;;;;4917063;29;20462;-70
2022/08/08 09:37:02;;;;;;;15.00;14.40;;;37.20;41.70;;;;;;4917859;29;20454;-70
2022/08/08 09:39:39;;;;;;;15.30;14.63;;;37.10;38.00;;;;;;4917721;29;20465;-70
2022/08/08 09:42:13;;;;;;;14.07;13.57;;;36.60;37.00;;;;;;4915784;29;20498;-69
2022/08/08 09:44:53;;;;;;;14.20;13.70;;;34.80;38.70;;;;;;4916976;29;20450;-70
2022/08/08 09:47:22;;;;;;;13.23;12.73;;;34.00;41.50;;;;;;4917253;29;20517;-70
2022/08/08 09:49:49;;;;;;;13.97;13.03;;;33.60;41.00;;;;;;4917042;29;20662;-70
2022/08/08 09:52:23;;;;;;;13.90;13.40;;;32.90;42.20;;;;;;4916955;29;20449;-70
2022/08/08 09:54:52;;;;;;;15.03;14.20;;;33.40;41.90;;;;;;4917045;29;20497;-70
2022/08/08 09:57:31;;;;;;;13.70;13.30;;;33.30;42.00;;;;;;4917022;29;20458;-70
2022/08/08 09:59:59;;;;;;;14.57;14.07;;;34.20;41.20;;;;;;4916526;29;20462;-70
2022/08/08 10:02:35;;;;;;;14.23;13.73;;;33.70;42.20;;;;;;4915608;29;20509;-70
2022/08/08 10:05:07;;;;;;;15.53;14.60;;;33.70;41.90;;;;;;4916692;29;20486;-71
2022/08/08 10:07:34;;;;;;;15.17;14.53;;;34.10;41.80;;;;;;4916943;29;20805;-70
2022/08/08 10:10:03;;;;;;;14.47;13.97;;;34.20;41.80;;;;;;4916523;29;20458;-70
2022/08/08 10:12:36;;;;;;;14.70;14.10;;;34.60;41.40;;;;;;4916620;29;20466;-70
2022/08/08 10:15:05;;;;;;;15.53;14.83;;;34.00;41.60;;;;;;4916845;29;20454;-69
2022/08/08 10:17:33;;;;;;;15.03;14.30;;;34.00;42.20;;;;;;4916608;29;20797;-69
2022/08/08 10:20:02;;;;;;;14.70;13.93;;;33.80;42.50;;;;;;4916300;29;20454;-69
2022/08/08 10:22:29;;;;;;;13.90;13.20;;;32.90;43.20;;;;;;4916319;29;20490;-69
2022/08/08 10:25:02;;;;;;;14.80;14.30;;;32.90;43.50;;;;;;4916166;29;20526;-68
2022/08/08 10:27:39;;;;;;;15.43;14.53;;;32.30;43.70;;;;;;4916227;29;20465;-69
2022/08/08 10:30:06;;;;;;;14.10;13.60;;;33.20;43.00;;;;;;4916468;29;20461;-69
2022/08/08 10:32:34;;;;;;;14.80;14.30;;;33.70;42.10;;;;;;4916366;29;20457;-69
2022/08/08 10:35:04;;;;;;;15.07;14.47;;;33.20;42.90;;;;;;4916305;29;20541;-68
2022/08/08 10:37:33;;;;;;;14.57;14.07;;;32.50;45.10;;;;;;4915483;29;20518;-69
2022/08/08 10:40:03;;;;;;;14.60;14.10;;;32.70;45.50;;;;;;4916248;29;20469;-69
2022/08/08 10:42:35;;;;;;;15.90;15.30;;;33.00;44.90;;;;;;4915931;29;20494;-69
2022/08/08 10:45:05;;;;;;;13.90;13.40;;;32.50;44.50;;;;;;4916175;29;20450;-69
2022/08/08 10:47:32;;;;;;;14.50;14.00;;;32.20;42.10;;;;;;4915938;29;20952;-69
2022/08/08 10:50:01;;;;;;;13.83;13.30;;;33.50;41.40;;;;;;4915773;29;20454;-69
2022/08/08 10:52:30;;;;;;;14.90;14.40;;;34.60;39.40;;;;;;4915758;29;20952;-69
2022/08/08 10:54:58;;;;;;;15.03;14.53;;;35.60;37.50;;;;;;4915652;29;21000;-69
2022/08/08 10:57:25;;;;;;;14.93;14.23;;;36.40;36.30;;;;;;4915834;29;20454;-69
2022/08/08 10:59:54;;;;;;;14.23;13.70;;;36.90;35.90;;;;;;4915631;29;20518;-69
2022/08/08 11:02:25;;;;;;;14.90;14.40;;;37.30;35.00;;;;;;4915546;29;20493;-69
2022/08/08 11:04:52;;;;;;;15.23;14.73;;;36.50;34.30;;;;;;4915607;29;20851;-69
2022/08/08 11:07:27;;;;;;;15.13;14.63;;;35.70;35.50;;;;;;4916012;29;20533;-69
2022/08/08 11:09:54;;;;;;;15.30;14.80;;;36.50;34.50;;;;;;4915651;29;20457;-70
2022/08/08 11:12:21;;;;;;;14.20;13.70;;;36.70;33.90;;;;;;4915628;29;20454;-69
2022/08/08 11:14:50;;;;;;;14.03;13.53;;;37.10;31.70;;;;;;4915751;29;20461;-71
2022/08/08 11:17:21;;;;;;;16.23;15.73;;;36.50;33.00;;;;;;4915560;29;20519;-69
2022/08/08 11:19:48;;;;;;;15.30;14.80;;;36.50;33.80;;;;;;4915657;29;20864;-69
2022/08/08 11:22:17;;;;;;;16.07;15.57;;;36.40;33.90;;;;;;4915358;29;20508;-70
2022/08/08 11:24:47;;;;;;;15.40;14.80;;;36.50;33.20;;;;;;4915542;29;20937;-69
2022/08/08 11:27:15;;;;;;;15.10;14.60;;;36.40;33.50;;;;;;4915256;29;20466;-69
2022/08/08 11:29:44;;;;;;;15.33;14.33;;;36.30;33.00;;;;;;4915321;29;20458;-69
2022/08/08 11:32:13;;;;;;;14.63;14.13;;;36.50;32.20;;;;;;4915169;29;20978;-69
2022/08/08 11:34:43;;;;;;;15.27;14.67;;;36.60;32.60;;;;;;4914907;29;20538;-69
2022/08/08 11:37:10;;;;;;;15.13;14.43;;;35.90;33.30;;;;;;4915125;29;21284;-69
2022/08/08 11:39:38;;;;;;;15.27;14.57;;;34.50;35.00;;;;;;4915222;29;20600;-69
2022/08/08 11:42:04;;;;;;;14.00;13.50;;;34.20;35.30;;;;;;4915209;29;20490;-70
2022/08/08 11:44:32;;;;;;;14.00;13.60;;;34.10;35.50;;;;;;4913231;29;20462;-69
2022/08/08 11:46:59;;;;;;;14.33;13.83;;;34.80;35.60;;;;;;4914175;29;20450;-69
2022/08/08 11:49:27;;;;;;;14.17;13.67;;;34.80;34.60;;;;;;4913827;29;20458;-69
2022/08/08 11:51:55;;;;;;;13.93;13.43;;;34.90;34.10;;;;;;4914583;29;20454;-69
2022/08/08 11:54:32;;;;;;;13.90;13.40;;;35.00;34.10;;;;;;4914574;29;20486;-69
2022/08/08 11:57:10;;;;;;;14.37;13.87;;;35.50;34.60;;;;;;4914527;29;20498;-69
2022/08/08 11:59:43;;;;;;;13.60;13.10;;;35.80;33.50;;;;;;4914474;29;20548;-69
2022/08/08 12:02:10;;;;;;;15.03;14.53;;;35.30;34.20;;;;;;4914219;29;20939;-69
2022/08/08 12:04:37;;;;;;;14.07;13.57;;;34.80;35.00;;;;;;4913532;29;20908;-69
2022/08/08 12:07:06;;;;;;;14.93;14.23;;;34.60;34.90;;;;;;4913968;29;20545;-69
2022/08/08 12:09:33;;;;;;;14.90;14.40;;;34.90;34.80;;;;;;4913635;29;20470;-69
2022/08/08 12:12:00;;;;;;;13.93;13.43;;;34.80;34.30;;;;;;4913452;29;20806;-70
2022/08/08 12:14:28;;;;;;;16.20;15.50;;;35.20;34.00;;;;;;4913525;29;20506;-69
2022/08/08 12:16:55;;;;;;;15.10;14.60;;;36.70;33.00;;;;;;4909594;29;21225;-68
2022/08/08 12:19:24;;;;;;;14.67;14.17;;;37.70;31.40;;;;;;4914127;29;20819;-70
2022/08/08 12:21:51;;;;;;;14.50;14.00;;;37.10;31.30;;;;;;4913955;29;20463;-69
2022/08/08 12:24:22;;;;;;;13.80;13.20;;;36.60;31.80;;;;;;4911362;29;20462;-69
2022/08/08 12:26:50;;;;;;;13.07;12.47;;;36.20;32.60;;;;;;4913932;29;20469;-68
2022/08/08 12:29:23;;;;;;;14.07;13.57;;;35.30;32.70;;;;;;4914098;29;20861;-68
2022/08/08 12:32:05;;;;;;;15.57;14.97;;;35.20;33.60;;;;;;4913729;29;20451;-68
2022/08/08 12:34:42;;;;;;;14.27;13.77;;;35.70;32.70;;;;;;4895037;29;20523;-69
2022/08/08 12:37:11;;;;;;;14.93;14.13;;;35.10;33.40;;;;;;4894905;29;20816;-69
2022/08/08 12:39:39;;;;;;;14.97;14.40;;;34.60;34.30;;;;;;4894706;29;20454;-69
2022/08/08 12:42:06;;;;;;;14.80;14.20;;;34.90;34.10;;;;;;4894728;29;20462;-69
2022/08/08 12:44:35;;;;;;;15.17;14.67;;;35.40;33.70;;;;;;4894503;29;20467;-69
2022/08/08 12:47:03;;;;;;;14.70;14.20;;;36.30;33.00;;;;;;4894984;29;20463;-69
2022/08/08 12:49:32;;;;;;;14.00;13.50;;;36.60;32.40;;;;;;4897611;29;20502;-69
2022/08/08 12:51:59;;;;;;;14.23;13.73;;;35.20;32.70;;;;;;4913193;29;20526;-69
2022/08/08 12:54:27;;;;;;;14.43;13.93;;;34.90;33.10;;;;;;4913451;29;20612;-69
2022/08/08 12:56:56;;;;;;;15.50;15.00;;;35.00;32.80;;;;;;4913669;29;20870;-68
2022/08/08 12:59:25;;;;;;;14.57;14.07;;;34.40;33.70;;;;;;4913421;29;20458;-69
2022/08/08 13:01:54;;;;;;;14.33;13.83;;;34.40;34.00;;;;;;4913184;29;20478;-69
2022/08/08 13:04:23;;;;;;;14.20;13.70;;;34.20;34.40;;;;;;4878863;29;1026679;-69
2022/08/08 13:06:57;;;;;;;15.27;14.67;;;35.50;33.50;;;;;;4914573;29;20226;-69
2022/08/08 13:09:32;;;;;;;15.57;15.07;;;36.90;31.90;;;;;;4914292;29;20462;-69
2022/08/08 13:12:01;;;;;;;15.30;14.70;;;38.00;30.40;;;;;;4914153;29;20454;-69
2022/08/08 13:14:39;;;;;;;13.47;13.07;;;36.50;30.90;;;;;;4913857;29;20473;-69
2022/08/08 13:17:06;;;;;;;13.87;13.33;;;34.80;32.10;;;;;;4914331;29;20509;-69
2022/08/08 13:19:33;;;;;;;14.00;13.60;;;34.30;33.10;;;;;;4914353;29;20461;-68
2022/08/08 13:22:00;;;;;;;14.13;13.47;;;33.60;34.30;;;;;;4914062;29;20549;-68
2022/08/08 13:24:28;;;;;;;13.90;13.30;;;33.10;35.20;;;;;;4913997;29;20490;-68
2022/08/08 13:27:03;;;;;;;14.70;14.10;;;33.20;34.90;;;;;;4914060;29;20541;-68
2022/08/08 13:29:30;;;;;;;13.10;12.70;;;33.10;34.90;;;;;;4913997;29;20454;-68
2022/08/08 13:32:02;;;;;;;14.47;13.97;;;33.10;34.90;;;;;;4911475;29;20494;-69
2022/08/08 13:34:29;;;;;;;14.63;14.07;;;33.40;34.60;;;;;;4913771;29;20541;-69
2022/08/08 13:36:56;;;;;;;15.37;14.83;;;33.80;34.30;;;;;;4913875;29;20466;-69
2022/08/08 13:39:23;;;;;;;15.50;14.90;;;34.60;33.60;;;;;;4913779;29;20454;-69
2022/08/08 13:41:53;;;;;;;14.30;13.80;;;35.90;32.40;;;;;;4913885;29;20537;-69
2022/08/08 13:44:25;;;;;;;15.50;14.93;;;35.80;32.30;;;;;;4913631;29;20553;-69
2022/08/08 13:46:55;;;;;;;14.83;14.23;;;35.80;32.20;;;;;;4913815;29;20454;-69
2022/08/08 13:49:24;;;;;;;15.57;14.73;;;34.70;33.00;;;;;;4913525;29;21039;-69
2022/08/08 13:51:54;;;;;;;13.97;13.50;;;34.00;33.80;;;;;;4913809;29;20462;-68
2022/08/08 13:54:22;;;;;;;14.93;14.43;;;33.20;34.60;;;;;;4913638;29;20506;-68
2022/08/08 13:57:03;;;;;;;13.47;13.07;;;32.50;35.30;;;;;;4913699;29;20972;-68
2022/08/08 13:59:33;;;;;;;15.27;14.57;;;32.40;35.90;;;;;;4913519;29;20465;-68
2022/08/08 14:02:00;;;;;;;14.20;13.70;;;32.10;36.40;;;;;;4913686;29;20493;-68
2022/08/08 14:04:27;;;;;;;15.30;14.70;;;31.80;36.70;;;;;;4912980;29;20501;-69
2022/08/08 14:06:59;;;;;;;14.70;14.13;;;32.20;36.90;;;;;;4913466;29;20494;-69
2022/08/08 14:09:34;;;;;;;14.73;14.17;;;32.90;36.10;;;;;;4913348;29;20466;-69
2022/08/08 14:12:04;;;;;;;14.17;13.67;;;34.10;35.00;;;;;;4896209;29;20451;-69
2022/08/08 14:14:40;;;;;;;15.70;14.60;;;35.20;33.80;;;;;;4902555;29;20450;-69
2022/08/08 14:17:08;;;;;;;15.20;14.60;;;36.00;32.10;;;;;;4908593;29;20461;-69
2022/08/08 14:19:38;;;;;;;14.17;13.77;;;35.90;31.90;;;;;;4916773;29;20496;-69
2022/08/08 14:22:23;;;;;;;14.90;14.40;;;35.90;32.30;;;;;;4916126;29;20458;-68
2022/08/08 14:24:52;;;;;;;14.70;14.10;;;34.40;33.50;;;;;;4897918;29;20496;-68
2022/08/08 14:27:21;;;;;;;14.87;14.13;;;34.10;34.30;;;;;;4897829;29;20506;-68
2022/08/08 14:29:58;;;;;;;15.13;14.63;;;34.50;33.40;;;;;;4897695;29;20463;-68
2022/08/08 14:32:26;;;;;;;13.70;13.07;;;34.40;33.80;;;;;;4911561;29;20461;-69
2022/08/08 14:34:54;;;;;;;13.80;13.40;;;34.10;34.20;;;;;;4916172;29;20949;-68
2022/08/08 14:37:22;;;;;;;14.27;13.73;;;34.30;34.00;;;;;;4915369;29;20952;-69
2022/08/08 14:39:51;;;;;;;14.30;13.63;;;34.70;33.70;;;;;;4915580;29;20462;-68
2022/08/08 14:42:29;;;;;;;13.00;12.60;;;35.00;33.50;;;;;;4916500;29;20454;-68
2022/08/08 14:44:59;;;;;;;14.43;13.93;;;34.60;33.40;;;;;;4915202;29;20489;-68
2022/08/08 14:47:25;;;;;;;14.40;14.00;;;33.70;34.30;;;;;;4916072;29;20474;-68
2022/08/08 14:50:04;;;;;;;14.80;14.00;;;33.30;34.30;;;;;;4915255;29;20455;-68
2022/08/08 14:52:43;;;;;;;14.80;14.30;;;33.00;35.10;;;;;;4915905;29;20584;-67
2022/08/08 14:55:10;;;;;;;14.47;13.87;;;32.60;34.50;;;;;;4916259;29;20461;-67
2022/08/08 14:57:37;;;;;;;15.20;14.70;;;32.00;35.10;;;;;;4915798;29;20968;-68
2022/08/08 15:00:08;;;;;;;15.10;14.60;;;31.60;36.20;;;;;;4916371;29;20490;-67
2022/08/08 15:02:35;;;;;;;14.30;13.80;;;31.40;36.40;;;;;;4915710;29;20474;-67
2022/08/08 15:05:02;;;;;;;14.53;14.03;;;31.10;36.90;;;;;;4915986;29;20494;-67
2022/08/08 15:07:29;;;;;;;14.53;14.03;;;30.90;36.40;;;;;;4916039;29;20459;-68
2022/08/08 15:09:56;;;;;;;15.53;14.73;;;30.50;36.80;;;;;;4915950;29;20486;-68
2022/08/08 15:12:23;;;;;;;14.57;14.03;;;30.30;36.80;;;;;;4916216;29;20518;-67
2022/08/08 15:14:50;;;;;;;13.97;13.33;;;30.10;37.20;;;;;;4916658;29;20458;-68
2022/08/08 15:17:18;;;;;;;12.07;11.67;;;30.10;37.20;;;;;;4916284;29;20466;-72
2022/08/08 15:19:45;;;;;;;13.97;13.57;;;30.10;37.40;;;;;;4915996;29;20511;-67
2022/08/08 15:22:13;;;;;;;14.43;13.83;;;30.00;37.40;;;;;;4915858;29;20454;-67
2022/08/08 15:24:39;;;;;;;13.87;13.43;;;30.00;37.60;;;;;;4916011;29;21205;-66
2022/08/08 15:27:06;;;;;;;13.43;12.63;;;29.90;37.60;;;;;;4916238;29;20454;-67
2022/08/08 15:29:33;;;;;;;13.30;12.80;;;29.80;37.30;;;;;;4916277;29;20561;-66
2022/08/08 15:31:59;;;;;;;13.27;12.63;;;29.90;37.40;;;;;;4915915;29;20876;-67
2022/08/08 15:34:27;;;;;;;11.90;11.50;;;29.90;37.90;;;;;;4915844;29;20860;-67
2022/08/08 15:36:54;;;;;;;14.20;13.70;;;29.90;37.30;;;;;;4915720;29;20461;-67
2022/08/08 15:39:21;;;;;;;14.70;13.90;;;29.90;37.60;;;;;;4916042;29;20458;-67
2022/08/08 15:41:48;;;;;;;13.43;12.83;;;29.80;37.50;;;;;;4915947;29;20454;-67
2022/08/08 15:44:14;;;;;;;13.67;13.27;;;29.80;37.50;;;;;;4915631;29;21000;-67
2022/08/08 15:46:41;;;;;;;13.37;12.97;;;29.90;37.40;;;;;;4915567;29;20871;-68
2022/08/08 15:49:08;;;;;;;13.80;13.40;;;30.00;37.30;;;;;;4915704;29;20477;-68
2022/08/08 15:51:36;;;;;;;13.90;13.40;;;29.90;36.90;;;;;;4915720;29;20991;-68
2022/08/08 15:54:03;;;;;;;15.20;14.60;;;29.90;37.70;;;;;;4915616;29;20454;-74
2022/08/08 15:56:30;;;;;;;15.13;14.53;;;30.00;37.40;;;;;;4915549;29;20459;-68
2022/08/08 15:58:57;;;;;;;13.40;12.87;;;29.80;36.80;;;;;;4915264;29;20450;-68
2022/08/08 16:01:23;;;;;;;14.40;13.90;;;29.70;37.40;;;;;;4915135;29;20471;-68
2022/08/08 16:03:50;;;;;;;13.33;12.90;;;29.80;37.20;;;;;;4915240;29;20509;-68
2022/08/08 16:06:17;;;;;;;13.90;13.30;;;29.80;37.30;;;;;;4915464;29;20976;-68
2022/08/08 16:08:45;;;;;;;15.50;14.90;;;29.80;37.10;;;;;;4915043;29;20481;-68
2022/08/08 16:11:12;;;;;;;13.43;13.03;;;29.80;37.10;;;;;;4915063;29;20454;-69
2022/08/08 16:13:38;;;;;;;14.67;13.87;;;29.70;37.00;;;;;;4914959;29;20454;-68
2022/08/08 16:16:05;;;;;;;15.10;14.20;;;29.60;37.20;;;;;;4915082;29;20454;-68
2022/08/08 16:18:32;;;;;;;13.70;13.20;;;29.50;37.30;;;;;;4915132;29;20459;-68
2022/08/08 16:20:59;;;;;;;14.00;13.50;;;29.40;38.00;;;;;;4915065;29;20454;-68
2022/08/08 16:23:25;;;;;;;13.73;13.30;;;29.40;37.50;;;;;;4914840;29;20486;-68
2022/08/08 16:25:53;;;;;;;13.57;13.10;;;29.40;37.60;;;;;;4914923;29;20526;-68
2022/08/08 16:28:20;;;;;;;13.90;13.20;;;29.30;37.30;;;;;;4915252;29;20521;-68
2022/08/08 16:30:46;;;;;;;13.77;13.03;;;29.30;37.60;;;;;;4915163;29;20859;-68
2022/08/08 16:33:13;;;;;;;13.97;13.47;;;29.40;37.70;;;;;;4914683;29;20941;-68
2022/08/08 16:35:40;;;;;;;14.10;13.50;;;29.30;37.20;;;;;;4914430;29;20945;-68
2022/08/08 16:38:06;;;;;;;13.80;13.10;;;29.30;37.20;;;;;;4914629;29;20462;-68